sensor_id;sensor_type;location;lat;lon;timestamp;pressure;altitude;pressure_sealevel;temperature;humidity
64115;BME280;62188;35.640;139.748;2023-02-23T00:00:18;102104.51;;;11.26;20.53
64115;BME280;62188;35.640;139.748;2023-02-23T00:02:42;102090.95;;;11.53;20.61
64115;BME280;62188;35.640;139.748;2023-02-23T00:05:08;102093.86;;;11.52;20.67
64115;BME280;62188;35.640;139.748;2023-02-23T00:07:33;102085.53;;;11.36;20.80
64115;BME280;62188;35.640;139.748;2023-02-23T00:09:58;102072.80;;;11.36;20.89
64115;BME280;62188;35.640;139.748;2023-02-23T00:12:24;102085.60;;;11.41;20.69
64115;BME280;62188;35.640;139.748;2023-02-23T00:14:50;102091.86;;;11.73;20.82
64115;BME280;62188;35.640;139.748;2023-02-23T00:17:15;102108.92;;;11.63;20.80
64115;BME280;62188;35.640;139.748;2023-02-23T00:19:41;102130.57;;;11.63;20.42
64115;BME280;62188;35.640;139.748;2023-02-23T00:22:07;102122.81;;;11.69;20.18
64115;BME280;62188;35.640;139.748;2023-02-23T00:24:32;102116.92;;;11.46;20.60
64115;BME280;62188;35.640;139.748;2023-02-23T00:26:58;102118.28;;;11.61;20.54
64115;BME280;62188;35.640;139.748;2023-02-23T00:29:24;102106.41;;;11.74;20.52
64115;BME280;62188;35.640;139.748;2023-02-23T00:31:50;102099.94;;;11.78;20.59
64115;BME280;62188;35.640;139.748;2023-02-23T00:34:17;102090.61;;;11.89;20.48
64115;BME280;62188;35.640;139.748;2023-02-23T00:36:40;102099.48;;;12.00;20.59
64115;BME280;62188;35.640;139.748;2023-02-23T00:39:07;102097.43;;;12.08;20.53
64115;BME280;62188;35.640;139.748;2023-02-23T00:41:31;102092.75;;;12.18;20.33
64115;BME280;62188;35.640;139.748;2023-02-23T00:43:58;102102.26;;;12.28;20.61
64115;BME280;62188;35.640;139.748;2023-02-23T00:46:24;102110.14;;;12.48;20.33
64115;BME280;62188;35.640;139.748;2023-02-23T00:48:48;102109.61;;;11.79;20.51
64115;BME280;62188;35.640;139.748;2023-02-23T00:51:13;102102.29;;;12.15;20.32
64115;BME280;62188;35.640;139.748;2023-02-23T00:53:38;102103.01;;;12.17;20.22
64115;BME280;62188;35.640;139.748;2023-02-23T00:56:05;102100.85;;;12.07;20.39
64115;BME280;62188;35.640;139.748;2023-02-23T00:58:30;102090.86;;;11.96;20.48
64115;BME280;62188;35.640;139.748;2023-02-23T01:00:55;102079.34;;;12.34;20.47
64115;BME280;62188;35.640;139.748;2023-02-23T01:03:20;102075.07;;;12.44;20.99
64115;BME280;62188;35.640;139.748;2023-02-23T01:05:45;102062.82;;;12.57;20.90
64115;BME280;62188;35.640;139.748;2023-02-23T01:08:10;102065.18;;;12.67;20.99
64115;BME280;62188;35.640;139.748;2023-02-23T01:10:38;102052.17;;;12.45;20.87
64115;BME280;62188;35.640;139.748;2023-02-23T01:13:01;102044.11;;;12.76;20.88
64115;BME280;62188;35.640;139.748;2023-02-23T01:15:26;102034.54;;;12.61;20.95
64115;BME280;62188;35.640;139.748;2023-02-23T01:17:51;102028.04;;;12.83;21.38
64115;BME280;62188;35.640;139.748;2023-02-23T01:20:17;102035.10;;;12.67;21.47
64115;BME280;62188;35.640;139.748;2023-02-23T01:22:43;102038.84;;;12.52;21.32
64115;BME280;62188;35.640;139.748;2023-02-23T01:25:09;102027.93;;;13.10;21.26
64115;BME280;62188;35.640;139.748;2023-02-23T01:27:33;102014.89;;;12.93;21.51
64115;BME280;62188;35.640;139.748;2023-02-23T01:29:59;102005.02;;;13.00;21.47
64115;BME280;62188;35.640;139.748;2023-02-23T01:32:25;101998.81;;;12.89;21.24
64115;BME280;62188;35.640;139.748;2023-02-23T01:34:50;101997.72;;;13.05;21.13
64115;BME280;62188;35.640;139.748;2023-02-23T01:37:15;101994.49;;;13.14;21.25
64115;BME280;62188;35.640;139.748;2023-02-23T01:39:41;101992.01;;;13.27;21.36
64115;BME280;62188;35.640;139.748;2023-02-23T01:42:11;101987.26;;;13.30;21.25
64115;BME280;62188;35.640;139.748;2023-02-23T01:46:58;101975.53;;;13.42;20.46
64115;BME280;62188;35.640;139.748;2023-02-23T01:49:26;101971.07;;;13.41;20.16
64115;BME280;62188;35.640;139.748;2023-02-23T01:51:51;101968.93;;;13.45;20.14
64115;BME280;62188;35.640;139.748;2023-02-23T01:54:17;101968.02;;;13.54;20.13
64115;BME280;62188;35.640;139.748;2023-02-23T01:56:43;101964.46;;;13.55;20.13
64115;BME280;62188;35.640;139.748;2023-02-23T01:59:06;101961.95;;;13.55;20.19
64115;BME280;62188;35.640;139.748;2023-02-23T02:01:30;101958.46;;;13.51;20.22
64115;BME280;62188;35.640;139.748;2023-02-23T02:03:57;101947.14;;;13.44;20.35
64115;BME280;62188;35.640;139.748;2023-02-23T02:06:23;101941.46;;;13.72;20.59
64115;BME280;62188;35.640;139.748;2023-02-23T02:08:50;101937.21;;;13.64;21.87
64115;BME280;62188;35.640;139.748;2023-02-23T02:11:13;101928.98;;;13.64;21.55
64115;BME280;62188;35.640;139.748;2023-02-23T02:13:38;101919.89;;;13.47;21.44
64115;BME280;62188;35.640;139.748;2023-02-23T02:16:21;101918.75;;;12.96;20.70
64115;BME280;62188;35.640;139.748;2023-02-23T02:18:34;101910.61;;;13.04;21.11
64115;BME280;62188;35.640;139.748;2023-02-23T02:25:52;101880.09;;;12.59;21.48
64115;BME280;62188;35.640;139.748;2023-02-23T02:28:25;101873.98;;;12.35;21.43
64115;BME280;62188;35.640;139.748;2023-02-23T02:33:09;101863.29;;;12.54;21.78
64115;BME280;62188;35.640;139.748;2023-02-23T02:38:12;101866.18;;;12.50;21.97
64115;BME280;62188;35.640;139.748;2023-02-23T02:40:25;101870.51;;;12.95;22.19
64115;BME280;62188;35.640;139.748;2023-02-23T02:42:55;101871.41;;;12.72;21.63
64115;BME280;62188;35.640;139.748;2023-02-23T02:45:14;101863.18;;;13.23;21.97
64115;BME280;62188;35.640;139.748;2023-02-23T02:47:40;101855.10;;;14.15;21.93
64115;BME280;62188;35.640;139.748;2023-02-23T02:50:03;101848.58;;;14.78;21.24
64115;BME280;62188;35.640;139.748;2023-02-23T02:52:30;101840.58;;;15.28;21.19
64115;BME280;62188;35.640;139.748;2023-02-23T02:54:54;101834.83;;;15.05;20.38
64115;BME280;62188;35.640;139.748;2023-02-23T02:57:19;101828.25;;;15.49;20.03
64115;BME280;62188;35.640;139.748;2023-02-23T02:59:46;101817.11;;;15.80;19.75
64115;BME280;62188;35.640;139.748;2023-02-23T03:02:15;101814.04;;;15.92;20.21
64115;BME280;62188;35.640;139.748;2023-02-23T03:04:34;101804.94;;;16.34;20.21
64115;BME280;62188;35.640;139.748;2023-02-23T03:07:06;101801.04;;;16.62;21.01
64115;BME280;62188;35.640;139.748;2023-02-23T03:09:32;101796.16;;;16.77;20.59
64115;BME280;62188;35.640;139.748;2023-02-23T03:11:58;101787.66;;;17.28;19.49
64115;BME280;62188;35.640;139.748;2023-02-23T03:14:24;101784.94;;;17.56;19.97
64115;BME280;62188;35.640;139.748;2023-02-23T03:16:48;101771.45;;;17.49;20.58
64115;BME280;62188;35.640;139.748;2023-02-23T03:19:13;101764.52;;;17.98;19.75
64115;BME280;62188;35.640;139.748;2023-02-23T03:21:38;101762.22;;;17.86;18.97
64115;BME280;62188;35.640;139.748;2023-02-23T03:24:06;101759.73;;;18.16;18.72
64115;BME280;62188;35.640;139.748;2023-02-23T03:26:29;101758.84;;;18.28;18.62
64115;BME280;62188;35.640;139.748;2023-02-23T03:28:54;101753.81;;;17.97;19.53
64115;BME280;62188;35.640;139.748;2023-02-23T03:31:20;101747.51;;;17.88;18.68
64115;BME280;62188;35.640;139.748;2023-02-23T03:33:45;101742.27;;;18.25;18.99
64115;BME280;62188;35.640;139.748;2023-02-23T03:36:09;101743.58;;;18.58;19.02
64115;BME280;62188;35.640;139.748;2023-02-23T03:38:40;101744.67;;;18.91;18.63
64115;BME280;62188;35.640;139.748;2023-02-23T03:40:56;101740.10;;;19.12;18.61
64115;BME280;62188;35.640;139.748;2023-02-23T03:43:25;101734.94;;;18.84;18.25
64115;BME280;62188;35.640;139.748;2023-02-23T03:45:48;101723.02;;;19.04;18.25
64115;BME280;62188;35.640;139.748;2023-02-23T03:48:14;101721.37;;;19.58;18.21
64115;BME280;62188;35.640;139.748;2023-02-23T03:50:40;101714.35;;;19.32;18.00
64115;BME280;62188;35.640;139.748;2023-02-23T03:53:04;101707.70;;;19.76;18.06
64115;BME280;62188;35.640;139.748;2023-02-23T03:55:32;101702.60;;;19.72;17.89
64115;BME280;62188;35.640;139.748;2023-02-23T03:57:56;101701.18;;;19.62;18.12
64115;BME280;62188;35.640;139.748;2023-02-23T04:00:26;101697.16;;;19.87;17.84
64115;BME280;62188;35.640;139.748;2023-02-23T04:02:48;101693.80;;;19.50;18.10
64115;BME280;62188;35.640;139.748;2023-02-23T04:05:16;101689.75;;;19.70;18.46
64115;BME280;62188;35.640;139.748;2023-02-23T04:07:38;101678.26;;;19.72;18.22
64115;BME280;62188;35.640;139.748;2023-02-23T04:10:03;101673.79;;;20.09;18.15
64115;BME280;62188;35.640;139.748;2023-02-23T04:12:32;101667.54;;;19.94;18.08
64115;BME280;62188;35.640;139.748;2023-02-23T04:15:00;101662.34;;;19.78;19.06
64115;BME280;62188;35.640;139.748;2023-02-23T04:17:18;101661.19;;;19.76;20.03
64115;BME280;62188;35.640;139.748;2023-02-23T04:19:49;101654.30;;;20.02;19.77
64115;BME280;62188;35.640;139.748;2023-02-23T04:22:09;101649.90;;;19.70;19.36
64115;BME280;62188;35.640;139.748;2023-02-23T04:24:34;101645.42;;;19.72;19.03
64115;BME280;62188;35.640;139.748;2023-02-23T04:27:00;101647.64;;;19.89;19.28
64115;BME280;62188;35.640;139.748;2023-02-23T04:29:25;101644.16;;;20.39;19.13
64115;BME280;62188;35.640;139.748;2023-02-23T04:31:51;101641.41;;;20.58;18.65
64115;BME280;62188;35.640;139.748;2023-02-23T04:34:17;101637.98;;;20.59;18.68
64115;BME280;62188;35.640;139.748;2023-02-23T04:36:42;101637.17;;;20.60;19.28
64115;BME280;62188;35.640;139.748;2023-02-23T04:39:09;101637.43;;;20.72;18.77
64115;BME280;62188;35.640;139.748;2023-02-23T04:41:33;101632.83;;;20.71;19.03
64115;BME280;62188;35.640;139.748;2023-02-23T04:43:58;101629.11;;;20.96;18.68
64115;BME280;62188;35.640;139.748;2023-02-23T04:46:23;101622.31;;;21.00;18.32
64115;BME280;62188;35.640;139.748;2023-02-23T04:48:49;101616.03;;;20.59;19.04
64115;BME280;62188;35.640;139.748;2023-02-23T04:51:15;101609.77;;;19.84;19.74
64115;BME280;62188;35.640;139.748;2023-02-23T04:53:41;101609.32;;;19.91;19.39
64115;BME280;62188;35.640;139.748;2023-02-23T04:56:07;101602.54;;;20.05;19.50
64115;BME280;62188;35.640;139.748;2023-02-23T04:58:31;101597.76;;;19.64;19.66
64115;BME280;62188;35.640;139.748;2023-02-23T05:01:05;101600.23;;;19.74;20.00
64115;BME280;62188;35.640;139.748;2023-02-23T05:03:22;101596.73;;;19.39;20.36
64115;BME280;62188;35.640;139.748;2023-02-23T05:05:48;101597.88;;;19.17;20.56
64115;BME280;62188;35.640;139.748;2023-02-23T05:08:14;101593.05;;;19.10;20.85
64115;BME280;62188;35.640;139.748;2023-02-23T05:10:39;101591.26;;;18.57;21.07
64115;BME280;62188;35.640;139.748;2023-02-23T05:13:05;101588.30;;;18.15;21.56
64115;BME280;62188;35.640;139.748;2023-02-23T05:15:30;101582.26;;;18.17;22.18
64115;BME280;62188;35.640;139.748;2023-02-23T05:17:56;101578.77;;;17.70;22.47
64115;BME280;62188;35.640;139.748;2023-02-23T05:20:21;101575.12;;;17.75;22.77
64115;BME280;62188;35.640;139.748;2023-02-23T05:22:48;101570.86;;;17.58;22.98
64115;BME280;62188;35.640;139.748;2023-02-23T05:25:14;101566.11;;;17.75;23.60
64115;BME280;62188;35.640;139.748;2023-02-23T05:27:40;101560.98;;;17.34;23.64
64115;BME280;62188;35.640;139.748;2023-02-23T05:30:06;101558.87;;;17.46;23.91
64115;BME280;62188;35.640;139.748;2023-02-23T05:32:30;101562.36;;;16.62;24.17
64115;BME280;62188;35.640;139.748;2023-02-23T05:34:55;101557.05;;;16.91;24.32
64115;BME280;62188;35.640;139.748;2023-02-23T05:37:20;101559.30;;;17.30;24.53
64115;BME280;62188;35.640;139.748;2023-02-23T05:39:46;101561.06;;;16.89;24.85
64115;BME280;62188;35.640;139.748;2023-02-23T05:42:12;101559.26;;;16.81;24.91
64115;BME280;62188;35.640;139.748;2023-02-23T05:44:36;101558.12;;;16.72;25.07
64115;BME280;62188;35.640;139.748;2023-02-23T05:47:01;101556.25;;;16.79;25.10
64115;BME280;62188;35.640;139.748;2023-02-23T05:49:27;101548.96;;;16.86;25.12
64115;BME280;62188;35.640;139.748;2023-02-23T05:51:52;101545.82;;;16.66;25.13
64115;BME280;62188;35.640;139.748;2023-02-23T05:54:17;101546.63;;;16.53;25.36
64115;BME280;62188;35.640;139.748;2023-02-23T05:56:43;101545.86;;;16.46;25.48
64115;BME280;62188;35.640;139.748;2023-02-23T05:59:08;101545.92;;;16.90;25.49
64115;BME280;62188;35.640;139.748;2023-02-23T06:01:33;101544.32;;;16.45;25.42
64115;BME280;62188;35.640;139.748;2023-02-23T06:03:58;101536.95;;;16.74;25.52
64115;BME280;62188;35.640;139.748;2023-02-23T06:06:25;101528.34;;;16.78;25.49
64115;BME280;62188;35.640;139.748;2023-02-23T06:08:48;101523.02;;;16.55;25.39
64115;BME280;62188;35.640;139.748;2023-02-23T06:11:14;101525.17;;;16.80;25.14
64115;BME280;62188;35.640;139.748;2023-02-23T06:13:40;101526.97;;;16.60;25.11
64115;BME280;62188;35.640;139.748;2023-02-23T06:16:06;101523.26;;;16.87;25.11
64115;BME280;62188;35.640;139.748;2023-02-23T06:18:31;101518.64;;;16.61;24.98
64115;BME280;62188;35.640;139.748;2023-02-23T06:20:59;101520.77;;;16.64;25.22
64115;BME280;62188;35.640;139.748;2023-02-23T06:23:20;101518.41;;;16.85;25.23
64115;BME280;62188;35.640;139.748;2023-02-23T06:25:47;101517.14;;;16.87;25.22
64115;BME280;62188;35.640;139.748;2023-02-23T06:28:12;101516.26;;;16.56;25.17
64115;BME280;62188;35.640;139.748;2023-02-23T06:30:38;101512.69;;;16.52;25.26
64115;BME280;62188;35.640;139.748;2023-02-23T06:33:03;101510.97;;;16.52;25.53
64115;BME280;62188;35.640;139.748;2023-02-23T06:35:28;101509.20;;;16.55;25.53
64115;BME280;62188;35.640;139.748;2023-02-23T06:37:53;101506.23;;;16.71;25.57
64115;BME280;62188;35.640;139.748;2023-02-23T06:40:18;101500.97;;;16.70;25.64
64115;BME280;62188;35.640;139.748;2023-02-23T06:42:44;101499.60;;;16.39;25.44
64115;BME280;62188;35.640;139.748;2023-02-23T06:45:10;101494.05;;;16.43;25.62
64115;BME280;62188;35.640;139.748;2023-02-23T06:47:35;101492.95;;;16.44;25.63
64115;BME280;62188;35.640;139.748;2023-02-23T06:50:00;101488.88;;;16.45;25.34
64115;BME280;62188;35.640;139.748;2023-02-23T06:52:25;101486.49;;;16.25;25.33
64115;BME280;62188;35.640;139.748;2023-02-23T06:54:50;101483.87;;;16.50;25.52
64115;BME280;62188;35.640;139.748;2023-02-23T06:57:15;101483.69;;;16.49;25.68
64115;BME280;62188;35.640;139.748;2023-02-23T06:59:41;101486.25;;;16.47;25.37
64115;BME280;62188;35.640;139.748;2023-02-23T07:02:08;101490.15;;;16.46;25.35
64115;BME280;62188;35.640;139.748;2023-02-23T07:04:32;101489.92;;;16.62;25.58
64115;BME280;62188;35.640;139.748;2023-02-23T07:06:57;101493.22;;;16.55;25.32
64115;BME280;62188;35.640;139.748;2023-02-23T07:09:24;101495.33;;;16.48;24.82
64115;BME280;62188;35.640;139.748;2023-02-23T07:11:48;101499.56;;;16.40;24.31
64115;BME280;62188;35.640;139.748;2023-02-23T07:14:13;101504.33;;;16.26;24.45
64115;BME280;62188;35.640;139.748;2023-02-23T07:16:39;101506.57;;;16.40;24.76
64115;BME280;62188;35.640;139.748;2023-02-23T07:19:03;101508.62;;;16.35;24.79
64115;BME280;62188;35.640;139.748;2023-02-23T07:21:30;101508.49;;;16.16;25.05
64115;BME280;62188;35.640;139.748;2023-02-23T07:23:54;101515.02;;;16.18;25.06
64115;BME280;62188;35.640;139.748;2023-02-23T07:26:20;101519.58;;;16.44;25.02
64115;BME280;62188;35.640;139.748;2023-02-23T07:28:45;101521.21;;;16.22;25.27
64115;BME280;62188;35.640;139.748;2023-02-23T07:31:11;101520.56;;;16.49;25.16
64115;BME280;62188;35.640;139.748;2023-02-23T07:33:36;101525.35;;;16.27;25.00
64115;BME280;62188;35.640;139.748;2023-02-23T07:36:01;101525.45;;;16.29;24.88
64115;BME280;62188;35.640;139.748;2023-02-23T07:38:26;101526.00;;;15.95;24.67
64115;BME280;62188;35.640;139.748;2023-02-23T07:40:52;101528.32;;;16.40;24.32
64115;BME280;62188;35.640;139.748;2023-02-23T07:43:18;101531.36;;;16.02;24.01
64115;BME280;62188;35.640;139.748;2023-02-23T07:45:43;101531.19;;;16.08;24.25
64115;BME280;62188;35.640;139.748;2023-02-23T07:48:08;101531.58;;;16.10;24.25
64115;BME280;62188;35.640;139.748;2023-02-23T07:50:33;101531.08;;;16.15;24.41
64115;BME280;62188;35.640;139.748;2023-02-23T07:52:59;101531.66;;;16.20;23.99
64115;BME280;62188;35.640;139.748;2023-02-23T07:55:24;101533.67;;;16.42;23.77
64115;BME280;62188;35.640;139.748;2023-02-23T07:57:49;101540.16;;;16.42;23.65
64115;BME280;62188;35.640;139.748;2023-02-23T08:00:15;101541.63;;;16.43;23.53
64115;BME280;62188;35.640;139.748;2023-02-23T08:02:40;101537.50;;;16.12;23.61
64115;BME280;62188;35.640;139.748;2023-02-23T08:05:06;101543.65;;;16.08;23.47
64115;BME280;62188;35.640;139.748;2023-02-23T08:07:32;101545.88;;;16.11;23.47
64115;BME280;62188;35.640;139.748;2023-02-23T08:09:57;101546.77;;;16.03;23.53
64115;BME280;62188;35.640;139.748;2023-02-23T08:12:21;101548.59;;;15.99;23.51
64115;BME280;62188;35.640;139.748;2023-02-23T08:14:47;101548.88;;;16.12;23.35
64115;BME280;62188;35.640;139.748;2023-02-23T08:17:13;101554.20;;;15.79;23.40
64115;BME280;62188;35.640;139.748;2023-02-23T08:19:38;101556.15;;;15.98;23.60
64115;BME280;62188;35.640;139.748;2023-02-23T08:22:04;101562.97;;;15.92;23.64
64115;BME280;62188;35.640;139.748;2023-02-23T08:24:29;101571.16;;;15.85;23.57
64115;BME280;62188;35.640;139.748;2023-02-23T08:26:54;101575.20;;;15.84;23.77
64115;BME280;62188;35.640;139.748;2023-02-23T08:29:19;101577.15;;;15.77;23.45
64115;BME280;62188;35.640;139.748;2023-02-23T08:31:45;101583.40;;;15.80;23.38
64115;BME280;62188;35.640;139.748;2023-02-23T08:34:10;101587.76;;;15.60;23.60
64115;BME280;62188;35.640;139.748;2023-02-23T08:36:36;101592.15;;;15.88;23.67
64115;BME280;62188;35.640;139.748;2023-02-23T08:39:01;101590.37;;;15.63;23.73
64115;BME280;62188;35.640;139.748;2023-02-23T08:41:26;101597.32;;;15.62;23.54
64115;BME280;62188;35.640;139.748;2023-02-23T08:43:51;101597.54;;;15.82;23.80
64115;BME280;62188;35.640;139.748;2023-02-23T08:46:17;101595.00;;;15.87;23.87
64115;BME280;62188;35.640;139.748;2023-02-23T08:48:42;101595.05;;;15.82;24.00
64115;BME280;62188;35.640;139.748;2023-02-23T08:51:08;101601.43;;;15.80;23.69
64115;BME280;62188;35.640;139.748;2023-02-23T08:53:34;101612.06;;;15.78;23.82
64115;BME280;62188;35.640;139.748;2023-02-23T08:56:01;101617.74;;;15.83;23.75
64115;BME280;62188;35.640;139.748;2023-02-23T08:58:24;101623.15;;;15.86;24.07
64115;BME280;62188;35.640;139.748;2023-02-23T09:00:50;101624.63;;;15.67;23.99
64115;BME280;62188;35.640;139.748;2023-02-23T09:03:16;101623.59;;;15.66;24.12
64115;BME280;62188;35.640;139.748;2023-02-23T09:05:41;101620.50;;;15.82;23.91
64115;BME280;62188;35.640;139.748;2023-02-23T09:08:07;101622.77;;;15.82;23.78
64115;BME280;62188;35.640;139.748;2023-02-23T09:10:32;101622.28;;;15.87;23.84
64115;BME280;62188;35.640;139.748;2023-02-23T09:12:58;101619.05;;;15.83;23.80
64115;BME280;62188;35.640;139.748;2023-02-23T09:15:23;101618.27;;;15.89;23.96
64115;BME280;62188;35.640;139.748;2023-02-23T09:17:49;101625.23;;;15.94;24.17
64115;BME280;62188;35.640;139.748;2023-02-23T09:20:15;101631.17;;;15.71;23.85
64115;BME280;62188;35.640;139.748;2023-02-23T09:22:40;101632.15;;;15.89;23.73
64115;BME280;62188;35.640;139.748;2023-02-23T09:25:06;101635.54;;;15.96;23.77
64115;BME280;62188;35.640;139.748;2023-02-23T09:27:30;101635.74;;;15.75;23.91
64115;BME280;62188;35.640;139.748;2023-02-23T09:29:56;101636.32;;;16.01;24.62
64115;BME280;62188;35.640;139.748;2023-02-23T09:32:21;101634.72;;;15.79;26.05
64115;BME280;62188;35.640;139.748;2023-02-23T09:34:47;101639.15;;;15.79;24.52
64115;BME280;62188;35.640;139.748;2023-02-23T09:37:12;101639.41;;;15.77;26.27
64115;BME280;62188;35.640;139.748;2023-02-23T09:39:37;101641.91;;;15.79;24.77
64115;BME280;62188;35.640;139.748;2023-02-23T09:42:16;101646.32;;;16.05;24.29
64115;BME280;62188;35.640;139.748;2023-02-23T09:44:38;101648.68;;;15.81;24.12
64115;BME280;62188;35.640;139.748;2023-02-23T09:47:02;101648.40;;;15.76;23.68
64115;BME280;62188;35.640;139.748;2023-02-23T09:49:22;101647.66;;;15.93;23.74
64115;BME280;62188;35.640;139.748;2023-02-23T09:51:48;101643.43;;;15.94;23.69
64115;BME280;62188;35.640;139.748;2023-02-23T09:54:12;101643.30;;;15.73;23.74
64115;BME280;62188;35.640;139.748;2023-02-23T09:56:38;101644.73;;;15.98;23.71
64115;BME280;62188;35.640;139.748;2023-02-23T09:59:01;101642.32;;;15.98;24.08
64115;BME280;62188;35.640;139.748;2023-02-23T10:01:39;101640.09;;;15.95;23.67
64115;BME280;62188;35.640;139.748;2023-02-23T10:03:57;101636.83;;;15.87;23.81
64115;BME280;62188;35.640;139.748;2023-02-23T10:06:18;101642.02;;;15.75;24.30
64115;BME280;62188;35.640;139.748;2023-02-23T10:08:50;101635.50;;;15.66;24.62
64115;BME280;62188;35.640;139.748;2023-02-23T10:11:13;101636.89;;;15.66;23.93
64115;BME280;62188;35.640;139.748;2023-02-23T10:13:43;101634.60;;;15.57;23.99
64115;BME280;62188;35.640;139.748;2023-02-23T10:16:06;101627.80;;;15.39;23.40
64115;BME280;62188;35.640;139.748;2023-02-23T10:18:32;101625.43;;;15.27;24.07
64115;BME280;62188;35.640;139.748;2023-02-23T10:20:57;101633.05;;;15.20;23.79
64115;BME280;62188;35.640;139.748;2023-02-23T10:23:22;101632.68;;;15.09;23.49
64115;BME280;62188;35.640;139.748;2023-02-23T10:25:45;101639.69;;;15.45;23.41
64115;BME280;62188;35.640;139.748;2023-02-23T10:28:12;101642.35;;;15.47;23.63
64115;BME280;62188;35.640;139.748;2023-02-23T10:30:34;101641.83;;;15.04;24.30
64115;BME280;62188;35.640;139.748;2023-02-23T10:33:09;101645.59;;;15.30;23.87
64115;BME280;62188;35.640;139.748;2023-02-23T10:35:25;101644.42;;;15.00;23.61
64115;BME280;62188;35.640;139.748;2023-02-23T10:37:50;101643.92;;;15.28;23.96
64115;BME280;62188;35.640;139.748;2023-02-23T10:40:17;101646.65;;;15.28;23.82
64115;BME280;62188;35.640;139.748;2023-02-23T10:42:41;101650.95;;;14.99;23.77
64115;BME280;62188;35.640;139.748;2023-02-23T10:45:13;101653.00;;;15.15;23.73
64115;BME280;62188;35.640;139.748;2023-02-23T10:47:33;101656.81;;;15.10;23.92
64115;BME280;62188;35.640;139.748;2023-02-23T10:49:58;101665.43;;;14.82;23.78
64115;BME280;62188;35.640;139.748;2023-02-23T10:52:28;101672.45;;;15.03;23.72
64115;BME280;62188;35.640;139.748;2023-02-23T10:54:48;101674.34;;;15.02;23.51
64115;BME280;62188;35.640;139.748;2023-02-23T10:57:20;101670.08;;;14.77;23.64
64115;BME280;62188;35.640;139.748;2023-02-23T10:59:40;101665.48;;;14.98;23.96
64115;BME280;62188;35.640;139.748;2023-02-23T11:02:15;101662.51;;;15.33;23.38
64115;BME280;62188;35.640;139.748;2023-02-23T11:04:31;101657.93;;;15.04;23.31
64115;BME280;62188;35.640;139.748;2023-02-23T11:07:07;101655.90;;;14.80;23.19
64115;BME280;62188;35.640;139.748;2023-02-23T11:09:25;101651.95;;;15.28;23.27
64115;BME280;62188;35.640;139.748;2023-02-23T11:11:56;101649.07;;;15.23;23.34
64115;BME280;62188;35.640;139.748;2023-02-23T11:14:17;101653.16;;;14.88;23.35
64115;BME280;62188;35.640;139.748;2023-02-23T11:16:39;101654.62;;;15.11;23.46
64115;BME280;62188;35.640;139.748;2023-02-23T11:19:05;101655.43;;;15.05;23.68
64115;BME280;62188;35.640;139.748;2023-02-23T11:21:29;101656.06;;;14.93;23.82
64115;BME280;62188;35.640;139.748;2023-02-23T11:23:56;101659.14;;;14.93;23.66
64115;BME280;62188;35.640;139.748;2023-02-23T11:26:29;101663.04;;;15.01;23.62
64115;BME280;62188;35.640;139.748;2023-02-23T11:28:44;101664.47;;;14.99;23.74
64115;BME280;62188;35.640;139.748;2023-02-23T11:31:16;101669.53;;;14.98;25.21
64115;BME280;62188;35.640;139.748;2023-02-23T11:33:37;101677.29;;;14.86;26.56
64115;BME280;62188;35.640;139.748;2023-02-23T11:36:13;101679.76;;;14.88;27.86
64115;BME280;62188;35.640;139.748;2023-02-23T11:38:28;101685.60;;;14.77;26.85
64115;BME280;62188;35.640;139.748;2023-02-23T11:40:59;101695.10;;;14.72;28.80
64115;BME280;62188;35.640;139.748;2023-02-23T11:43:17;101698.55;;;14.77;28.76
64115;BME280;62188;35.640;139.748;2023-02-23T11:45:47;101696.49;;;14.87;26.87
64115;BME280;62188;35.640;139.748;2023-02-23T11:50:34;101706.64;;;14.96;26.85
64115;BME280;62188;35.640;139.748;2023-02-23T11:53:03;101709.20;;;14.89;29.06
64115;BME280;62188;35.640;139.748;2023-02-23T11:55:24;101714.14;;;14.98;29.28
64115;BME280;62188;35.640;139.748;2023-02-23T11:57:49;101718.31;;;15.04;28.85
64115;BME280;62188;35.640;139.748;2023-02-23T12:00:24;101718.20;;;15.11;28.01
64115;BME280;62188;35.640;139.748;2023-02-23T12:02:46;101715.49;;;15.20;28.07
64115;BME280;62188;35.640;139.748;2023-02-23T12:05:16;101714.11;;;15.21;28.97
64115;BME280;62188;35.640;139.748;2023-02-23T12:07:36;101715.53;;;14.81;28.73
64115;BME280;62188;35.640;139.748;2023-02-23T12:10:01;101717.91;;;15.19;28.49
64115;BME280;62188;35.640;139.748;2023-02-23T12:12:23;101715.44;;;15.00;28.83
64115;BME280;62188;35.640;139.748;2023-02-23T12:14:50;101714.48;;;15.36;29.87
64115;BME280;62188;35.640;139.748;2023-02-23T12:17:17;101715.19;;;15.42;29.28
64115;BME280;62188;35.640;139.748;2023-02-23T12:19:42;101717.72;;;15.03;28.95
64115;BME280;62188;35.640;139.748;2023-02-23T12:22:10;101718.66;;;15.05;29.43
64115;BME280;62188;35.640;139.748;2023-02-23T12:24:39;101721.15;;;15.28;30.36
64115;BME280;62188;35.640;139.748;2023-02-23T12:27:00;101727.26;;;15.03;30.05
64115;BME280;62188;35.640;139.748;2023-02-23T12:29:28;101732.16;;;15.27;30.57
64115;BME280;62188;35.640;139.748;2023-02-23T12:31:51;101736.13;;;15.31;31.14
64115;BME280;62188;35.640;139.748;2023-02-23T12:34:20;101737.52;;;15.03;31.07